Time;durP1;ratioP1;P1;durP2;ratioP2;P2;SDS_P1;SDS_P2;PMS_P1;PMS_P2;Temp;Humidity;BMP_temperature;BMP_pressure;BME280_temperature;BME280_humidity;BME280_pressure;Samples;Min_cycle;Max_cycle;Signal;HPM_P1;HPM_P2
2022/07/30 00:01:24;;;;;;;1.88;0.80;;;15.40;99.90;;;;;;5048776;28;20048;-75
2022/07/30 00:03:52;;;;;;;2.53;1.00;;;15.30;99.90;;;;;;5047757;28;20045;-75
2022/07/30 00:06:18;;;;;;;1.90;0.98;;;15.30;99.90;;;;;;5048827;28;20147;-75
2022/07/30 00:08:43;;;;;;;1.83;1.10;;;15.20;99.90;;;;;;5048448;28;20037;-75
2022/07/30 00:11:10;;;;;;;2.25;1.20;;;15.20;99.90;;;;;;5048115;28;20032;-75
2022/07/30 00:13:36;;;;;;;1.20;0.82;;;15.10;99.90;;;;;;5029799;28;20025;-75
2022/07/30 00:16:02;;;;;;;1.65;1.00;;;15.10;99.90;;;;;;5047767;28;20089;-75
2022/07/30 00:18:27;;;;;;;2.45;1.25;;;15.20;99.90;;;;;;5032289;28;20041;-75
2022/07/30 00:20:53;;;;;;;2.08;1.20;;;15.20;99.90;;;;;;5046414;28;20037;-75
2022/07/30 00:23:19;;;;;;;3.28;1.10;;;15.20;99.90;;;;;;5046695;28;20033;-75
2022/07/30 00:25:44;;;;;;;1.88;1.10;;;15.20;99.90;;;;;;5047714;28;20037;-75
2022/07/30 00:28:10;;;;;;;1.98;1.17;;;15.00;99.90;;;;;;5047269;28;20126;-75
2022/07/30 00:30:37;;;;;;;2.53;1.23;;;15.10;99.90;;;;;;5032223;28;20418;-75
2022/07/30 00:33:02;;;;;;;1.63;1.00;;;15.10;99.90;;;;;;5046067;28;20044;-75
2022/07/30 00:35:28;;;;;;;2.40;1.25;;;15.10;99.90;;;;;;5047281;28;20033;-75
2022/07/30 00:37:54;;;;;;;2.08;1.20;;;15.10;99.90;;;;;;5047758;28;20043;-75
2022/07/30 00:40:19;;;;;;;1.65;0.90;;;15.10;99.90;;;;;;5048676;28;20600;-75
2022/07/30 00:42:46;;;;;;;1.52;0.90;;;15.10;99.90;;;;;;5029974;28;20120;-75
2022/07/30 00:45:13;;;;;;;2.25;1.10;;;15.10;99.90;;;;;;5047851;28;20037;-75
2022/07/30 00:47:39;;;;;;;2.10;1.08;;;15.00;99.90;;;;;;5048420;28;20075;-75
2022/07/30 00:50:07;;;;;;;1.48;0.90;;;15.00;99.90;;;;;;5048008;28;20029;-75
2022/07/30 00:52:34;;;;;;;3.88;1.00;;;15.00;99.90;;;;;;5045676;28;20037;-75
2022/07/30 00:54:59;;;;;;;1.10;0.73;;;14.90;99.90;;;;;;5046540;28;20486;-75
2022/07/30 00:57:26;;;;;;;1.25;0.68;;;14.90;99.90;;;;;;5046675;28;20047;-75
2022/07/30 00:59:52;;;;;;;1.70;0.82;;;14.90;99.90;;;;;;5046461;28;20043;-75
2022/07/30 01:02:17;;;;;;;0.95;0.60;;;14.80;99.90;;;;;;5063475;28;20037;-75
2022/07/30 01:04:43;;;;;;;1.60;0.70;;;14.80;99.90;;;;;;5047424;28;20033;-75
2022/07/30 01:07:09;;;;;;;0.90;0.60;;;14.80;99.90;;;;;;5046489;28;20482;-75
2022/07/30 01:09:35;;;;;;;1.33;0.80;;;14.80;99.90;;;;;;5045903;28;20047;-75
2022/07/30 01:12:02;;;;;;;2.15;1.10;;;14.80;99.90;;;;;;5055677;28;20094;-75
2022/07/30 01:14:27;;;;;;;1.83;0.80;;;14.70;99.90;;;;;;5068509;28;20082;-75
2022/07/30 01:16:53;;;;;;;1.10;0.75;;;14.70;99.90;;;;;;5054322;28;20069;-75
2022/07/30 01:22:15;;;;;;;2.13;1.15;;;14.70;99.90;;;;;;5046801;28;20497;-75
2022/07/30 01:24:45;;;;;;;2.42;1.02;;;14.70;99.90;;;;;;5044862;28;20048;-75
2022/07/30 01:27:13;;;;;;;2.58;1.20;;;14.60;99.90;;;;;;5040219;28;20584;-75
2022/07/30 01:29:42;;;;;;;1.15;0.75;;;14.70;99.90;;;;;;5044738;28;20052;-75
2022/07/30 01:32:09;;;;;;;2.00;0.98;;;14.60;99.90;;;;;;5047755;28;20095;-75
2022/07/30 01:34:37;;;;;;;1.45;0.95;;;14.60;99.90;;;;;;5047521;28;20591;-75
2022/07/30 01:37:04;;;;;;;1.23;0.80;;;14.50;99.90;;;;;;5047604;28;20429;-75
2022/07/30 01:39:31;;;;;;;2.78;0.95;;;14.50;99.90;;;;;;5044211;28;20397;-75
2022/07/30 01:41:57;;;;;;;2.13;1.10;;;14.50;99.90;;;;;;5028446;28;20438;-75
2022/07/30 01:44:25;;;;;;;1.67;1.00;;;14.40;99.90;;;;;;5046504;28;20048;-75
2022/07/30 01:46:53;;;;;;;2.25;1.17;;;14.40;99.90;;;;;;5031519;28;20037;-75
2022/07/30 01:49:20;;;;;;;2.05;0.98;;;14.40;99.90;;;;;;5030471;28;20047;-75
2022/07/30 01:51:47;;;;;;;1.17;0.60;;;14.40;99.90;;;;;;5028175;28;20052;-76
2022/07/30 01:54:15;;;;;;;2.20;1.20;;;14.40;99.90;;;;;;5045176;28;20037;-75
2022/07/30 01:56:43;;;;;;;2.58;0.98;;;14.30;99.90;;;;;;5041281;28;20103;-75
2022/07/30 01:59:10;;;;;;;1.70;0.90;;;14.40;99.90;;;;;;5046823;28;20394;-75
2022/07/30 02:01:35;;;;;;;1.13;0.68;;;14.30;99.90;;;;;;5045699;28;20056;-75
2022/07/30 02:04:03;;;;;;;0.95;0.47;;;14.40;99.90;;;;;;5045300;28;20045;-75
2022/07/30 02:06:37;;;;;;;1.55;0.63;;;14.30;99.90;;;;;;5029889;28;20041;-76
2022/07/30 02:09:05;;;;;;;2.03;0.75;;;14.30;99.90;;;;;;5028098;28;20490;-75
2022/07/30 02:14:29;;;;;;;1.25;0.60;;;14.10;99.90;;;;;;5045867;28;20052;-75
2022/07/30 02:16:57;;;;;;;1.33;0.85;;;14.00;99.90;;;;;;5047101;28;20617;-75
2022/07/30 02:19:27;;;;;;;1.45;0.75;;;14.00;99.90;;;;;;5043409;28;20132;-76
2022/07/30 02:21:59;;;;;;;1.42;0.95;;;13.90;99.90;;;;;;5028219;28;20032;-75
2022/07/30 02:24:29;;;;;;;0.63;0.47;;;14.00;99.90;;;;;;5043478;28;20045;-75
2022/07/30 02:27:01;;;;;;;0.73;0.50;;;13.90;99.90;;;;;;5045791;28;20084;-75
2022/07/30 02:29:28;;;;;;;3.00;0.90;;;13.90;99.90;;;;;;5046256;28;20090;-76
2022/07/30 02:31:56;;;;;;;2.78;1.05;;;13.90;99.90;;;;;;5046100;28;20044;-76
2022/07/30 02:34:23;;;;;;;1.77;1.10;;;13.90;99.90;;;;;;5046831;28;20051;-76
2022/07/30 02:36:50;;;;;;;2.10;1.08;;;13.90;99.90;;;;;;5046506;28;20079;-75
2022/07/30 02:39:17;;;;;;;1.98;1.08;;;13.90;99.90;;;;;;5043481;28;20041;-75
2022/07/30 02:41:44;;;;;;;2.67;1.30;;;13.90;99.90;;;;;;5047080;28;20131;-75
2022/07/30 02:44:11;;;;;;;1.30;0.73;;;13.90;99.90;;;;;;5029909;28;20533;-75
2022/07/30 02:46:38;;;;;;;2.45;1.45;;;13.90;99.90;;;;;;5046097;28;20048;-76
2022/07/30 02:49:05;;;;;;;2.10;1.40;;;13.90;99.90;;;;;;5044025;28;20044;-76
2022/07/30 02:51:32;;;;;;;2.83;1.30;;;13.90;99.90;;;;;;5045019;28;20124;-76
2022/07/30 02:54:00;;;;;;;2.47;1.50;;;13.90;99.90;;;;;;5044923;28;20049;-76
2022/07/30 02:56:27;;;;;;;3.90;1.88;;;13.90;99.90;;;;;;5047394;28;20052;-76
2022/07/30 02:58:55;;;;;;;2.90;1.88;;;13.90;99.90;;;;;;5045468;28;20521;-75
2022/07/30 03:01:23;;;;;;;2.13;1.23;;;13.90;99.90;;;;;;5061603;28;20041;-75
2022/07/30 03:03:50;;;;;;;2.20;1.20;;;13.90;99.90;;;;;;5044448;28;20041;-75
2022/07/30 03:06:18;;;;;;;1.38;0.95;;;13.80;99.90;;;;;;5029131;28;20036;-75
2022/07/30 03:08:45;;;;;;;1.83;1.13;;;13.80;99.90;;;;;;5043896;28;20041;-75
2022/07/30 03:11:12;;;;;;;1.80;1.10;;;13.70;99.90;;;;;;5044967;28;20044;-75
2022/07/30 03:13:38;;;;;;;1.70;0.90;;;13.60;99.90;;;;;;5043781;28;20071;-75
2022/07/30 03:16:08;;;;;;;2.55;1.00;;;13.60;99.90;;;;;;5048193;28;20126;-75
2022/07/30 03:18:36;;;;;;;4.15;1.85;;;13.50;99.90;;;;;;5049798;28;20490;-75
2022/07/30 03:21:05;;;;;;;2.80;1.60;;;13.50;99.90;;;;;;5046635;28;20111;-75
2022/07/30 03:23:35;;;;;;;3.17;1.50;;;13.50;99.90;;;;;;5030000;28;20491;-75
2022/07/30 03:26:03;;;;;;;1.95;1.10;;;13.50;99.90;;;;;;5066958;28;20600;-75
2022/07/30 03:28:35;;;;;;;2.40;1.40;;;13.40;99.90;;;;;;5050389;28;20118;-75
2022/07/30 03:31:01;;;;;;;2.60;1.50;;;13.40;99.90;;;;;;5047626;28;20043;-75
2022/07/30 03:33:27;;;;;;;2.55;1.55;;;13.50;99.90;;;;;;5048202;28;20037;-75
2022/07/30 03:35:54;;;;;;;2.30;1.30;;;13.40;99.90;;;;;;5049149;28;20065;-75
2022/07/30 03:38:20;;;;;;;2.40;1.33;;;13.40;99.90;;;;;;5048045;28;20227;-76
2022/07/30 03:40:45;;;;;;;4.95;1.30;;;13.40;99.90;;;;;;5033681;28;20048;-75
2022/07/30 03:43:13;;;;;;;2.35;1.50;;;13.40;99.90;;;;;;5046856;28;20048;-75
2022/07/30 03:45:40;;;;;;;2.00;1.13;;;13.30;99.90;;;;;;5048794;28;20049;-75
2022/07/30 03:48:08;;;;;;;6.28;1.70;;;13.40;99.90;;;;;;5048304;28;20116;-75
2022/07/30 03:50:39;;;;;;;3.35;1.38;;;13.40;99.90;;;;;;5048326;28;20048;-76
2022/07/30 03:53:06;;;;;;;4.95;1.60;;;13.30;99.90;;;;;;5047301;28;20068;-75
2022/07/30 03:55:32;;;;;;;2.63;1.42;;;13.30;99.90;;;;;;5048778;28;20110;-76
2022/07/30 03:58:00;;;;;;;3.25;1.60;;;13.30;99.90;;;;;;5044668;28;20032;-75
2022/07/30 04:00:26;;;;;;;1.73;1.23;;;13.30;99.90;;;;;;5047904;28;20036;-75
2022/07/30 04:02:53;;;;;;;2.58;1.30;;;13.30;99.90;;;;;;5046960;28;20063;-76
2022/07/30 04:05:18;;;;;;;3.67;1.48;;;13.30;99.90;;;;;;5048844;28;20112;-75
2022/07/30 04:07:44;;;;;;;2.25;1.50;;;13.30;99.90;;;;;;5045816;28;20246;-76
2022/07/30 04:10:10;;;;;;;2.95;1.30;;;13.30;99.90;;;;;;5048511;28;20033;-76
2022/07/30 04:12:35;;;;;;;2.58;1.15;;;13.20;99.90;;;;;;5047797;28;20047;-76
2022/07/30 04:15:01;;;;;;;1.30;1.02;;;13.20;99.90;;;;;;5049160;28;20191;-76
2022/07/30 04:17:48;;;;;;;1.75;1.00;;;13.20;99.90;;;;;;5049110;28;20055;-76
2022/07/30 04:20:23;;;;;;;1.52;0.90;;;13.20;99.90;;;;;;5044673;28;20757;-76
2022/07/30 04:22:50;;;;;;;1.80;1.10;;;13.20;99.90;;;;;;5048249;28;20037;-75
2022/07/30 04:25:16;;;;;;;1.88;1.25;;;13.20;99.90;;;;;;5045843;28;20041;-75
2022/07/30 04:27:42;;;;;;;3.75;1.73;;;13.20;99.90;;;;;;5044085;28;20044;-75
2022/07/30 04:30:09;;;;;;;2.28;1.27;;;13.20;99.90;;;;;;5047379;28;20041;-75
2022/07/30 04:32:36;;;;;;;2.55;1.40;;;13.30;99.90;;;;;;5048150;28;20048;-76
2022/07/30 04:35:03;;;;;;;2.97;1.55;;;13.30;99.90;;;;;;5049099;28;20041;-75
2022/07/30 04:37:28;;;;;;;2.55;1.15;;;13.30;99.90;;;;;;5048712;28;20051;-76
2022/07/30 04:39:56;;;;;;;1.80;1.27;;;13.40;99.90;;;;;;5048407;28;20045;-75
2022/07/30 04:42:27;;;;;;;3.05;1.50;;;13.40;99.90;;;;;;5047665;28;20049;-75
2022/07/30 04:44:53;;;;;;;2.88;1.88;;;13.40;99.90;;;;;;5047670;28;20060;-75
2022/07/30 04:47:19;;;;;;;4.72;1.95;;;13.40;99.90;;;;;;5048085;28;20049;-75
2022/07/30 04:49:46;;;;;;;5.82;2.08;;;13.50;99.90;;;;;;5047435;28;20123;-75
2022/07/30 04:52:13;;;;;;;4.45;1.83;;;13.40;99.90;;;;;;5049188;28;20522;-75
2022/07/30 04:54:54;;;;;;;2.67;1.30;;;13.40;99.90;;;;;;5047773;28;20086;-75
2022/07/30 04:57:20;;;;;;;3.67;1.50;;;13.50;99.90;;;;;;5044769;28;20045;-75
2022/07/30 04:59:46;;;;;;;4.07;1.92;;;13.50;99.90;;;;;;5047450;28;20041;-75
2022/07/30 05:02:14;;;;;;;5.88;2.13;;;13.50;99.90;;;;;;5048702;28;20033;-75
2022/07/30 05:04:41;;;;;;;4.13;2.00;;;13.60;99.90;;;;;;5031984;28;20414;-75
2022/07/30 05:07:07;;;;;;;5.13;2.20;;;13.60;99.90;;;;;;5048924;28;20468;-75
2022/07/30 05:09:33;;;;;;;4.05;1.90;;;13.70;99.90;;;;;;5053244;28;20517;-75
2022/07/30 05:11:59;;;;;;;3.85;1.73;;;13.80;99.90;;;;;;5031926;28;20410;-75
2022/07/30 05:14:25;;;;;;;4.88;2.15;;;13.70;99.90;;;;;;5048037;28;20052;-75
2022/07/30 05:16:52;;;;;;;3.85;1.55;;;13.70;99.90;;;;;;5048357;28;20040;-75
2022/07/30 05:19:19;;;;;;;3.65;1.77;;;13.80;99.90;;;;;;5044860;28;20123;-75
2022/07/30 05:21:44;;;;;;;4.68;1.90;;;13.70;99.90;;;;;;5048707;28;20041;-75
2022/07/30 05:24:10;;;;;;;5.03;2.38;;;13.80;99.90;;;;;;5051736;28;20460;-75
2022/07/30 05:26:36;;;;;;;5.68;2.58;;;13.80;99.90;;;;;;5068614;28;20123;-75
2022/07/30 05:29:02;;;;;;;3.70;2.20;;;13.90;99.90;;;;;;5057891;28;20126;-75
2022/07/30 05:31:27;;;;;;;4.20;2.20;;;13.90;99.90;;;;;;5048405;28;20141;-75
2022/07/30 05:33:53;;;;;;;5.28;2.72;;;14.10;99.90;;;;;;5047328;28;20119;-75
2022/07/30 05:36:19;;;;;;;4.10;2.30;;;14.10;99.90;;;;;;5048280;28;20040;-75
2022/07/30 05:38:45;;;;;;;7.20;2.38;;;14.10;99.90;;;;;;5045568;28;20041;-75
2022/07/30 05:41:11;;;;;;;4.18;2.25;;;14.20;99.90;;;;;;5030978;28;20057;-75
2022/07/30 05:43:36;;;;;;;3.30;1.98;;;14.30;99.90;;;;;;5048088;28;20044;-75
2022/07/30 05:46:02;;;;;;;4.88;2.40;;;14.30;99.90;;;;;;5049493;28;20033;-75
2022/07/30 05:48:27;;;;;;;3.92;2.40;;;14.40;99.90;;;;;;5049372;28;20401;-75
2022/07/30 05:50:53;;;;;;;3.67;1.83;;;14.50;99.90;;;;;;5044330;28;20827;-75
2022/07/30 05:53:19;;;;;;;4.22;2.00;;;14.50;99.90;;;;;;5044445;28;20409;-75
2022/07/30 05:55:44;;;;;;;7.63;2.20;;;14.60;99.90;;;;;;5045859;28;20322;-75
2022/07/30 05:58:10;;;;;;;5.30;2.63;;;14.70;99.90;;;;;;5031203;28;20041;-75
2022/07/30 06:00:36;;;;;;;4.10;2.15;;;14.90;99.90;;;;;;5046407;28;20056;-75
2022/07/30 06:03:01;;;;;;;5.20;2.40;;;15.00;99.90;;;;;;5046357;28;20588;-75
2022/07/30 06:05:27;;;;;;;4.40;2.72;;;15.10;99.90;;;;;;5028860;28;20037;-75
2022/07/30 06:07:53;;;;;;;3.67;2.17;;;15.10;99.90;;;;;;5030189;28;20565;-76
2022/07/30 06:10:19;;;;;;;7.63;2.67;;;15.10;99.90;;;;;;5047984;28;20033;-75
2022/07/30 06:12:45;;;;;;;3.33;1.98;;;15.20;99.90;;;;;;5047295;28;20646;-75
2022/07/30 06:15:10;;;;;;;4.50;2.55;;;15.30;99.90;;;;;;5029353;28;20043;-75
2022/07/30 06:17:44;;;;;;;3.17;1.65;;;15.30;99.90;;;;;;5047007;28;20506;-75
2022/07/30 06:20:14;;;;;;;4.20;2.15;;;15.40;99.90;;;;;;5044259;28;20115;-75
2022/07/30 06:22:40;;;;;;;3.58;1.90;;;15.40;99.90;;;;;;5044609;28;20084;-75
2022/07/30 06:25:06;;;;;;;4.90;2.05;;;15.50;99.90;;;;;;5036890;28;20165;-71
2022/07/30 06:27:32;;;;;;;3.92;2.10;;;15.50;99.90;;;;;;5043705;28;20565;-74
2022/07/30 06:30:03;;;;;;;4.05;2.15;;;15.60;99.90;;;;;;5039663;28;20047;-75
2022/07/30 06:32:29;;;;;;;3.90;2.38;;;15.70;99.90;;;;;;5029607;28;20059;-75
2022/07/30 06:34:54;;;;;;;5.38;2.28;;;16.10;99.90;;;;;;5034534;28;20800;-75
2022/07/30 06:37:20;;;;;;;3.55;2.38;;;16.70;99.90;;;;;;5040605;28;20037;-75
2022/07/30 06:39:46;;;;;;;5.93;2.30;;;17.70;99.90;;;;;;5042095;28;20061;-75
2022/07/30 06:42:12;;;;;;;3.05;1.95;;;18.60;99.90;;;;;;5042441;28;20502;-75
2022/07/30 06:44:37;;;;;;;5.28;2.35;;;19.60;99.90;;;;;;5041580;28;20124;-75
2022/07/30 06:47:03;;;;;;;4.05;2.15;;;20.40;99.90;;;;;;5041187;28;20068;-75
2022/07/30 06:49:33;;;;;;;4.50;2.30;;;20.90;99.50;;;;;;5039802;28;20092;-75
2022/07/30 06:51:59;;;;;;;4.47;2.53;;;20.80;99.40;;;;;;5048084;28;20069;-75
2022/07/30 06:54:24;;;;;;;4.22;2.03;;;20.50;99.90;;;;;;5047007;28;20142;-75
2022/07/30 06:56:50;;;;;;;5.55;2.05;;;20.00;99.90;;;;;;5043364;28;20524;-75
2022/07/30 06:59:16;;;;;;;5.38;2.58;;;19.50;99.90;;;;;;5049551;28;20040;-75
2022/07/30 07:01:41;;;;;;;5.20;2.78;;;19.00;99.90;;;;;;5029812;28;20069;-74
2022/07/30 07:04:07;;;;;;;5.50;2.55;;;18.70;99.90;;;;;;5044818;28;20049;-76
2022/07/30 07:06:33;;;;;;;5.85;2.65;;;18.50;99.90;;;;;;5048806;28;20041;-76
2022/07/30 07:08:58;;;;;;;5.38;2.35;;;18.20;99.90;;;;;;5041749;28;20036;-76
2022/07/30 07:11:24;;;;;;;6.03;2.35;;;18.00;99.90;;;;;;5046210;28;20033;-76
2022/07/30 07:13:50;;;;;;;5.32;2.63;;;17.90;99.90;;;;;;5047751;28;20486;-75
2022/07/30 07:16:20;;;;;;;5.07;2.65;;;17.80;99.90;;;;;;5029796;28;20487;-75
2022/07/30 07:18:46;;;;;;;4.10;2.30;;;17.70;99.90;;;;;;5044891;28;20060;-76
2022/07/30 07:21:13;;;;;;;6.43;3.10;;;17.70;99.90;;;;;;5049665;28;20037;-76
2022/07/30 07:23:38;;;;;;;5.38;2.78;;;17.60;99.90;;;;;;5044109;28;20264;-76
2022/07/30 07:26:04;;;;;;;8.18;2.97;;;17.60;99.90;;;;;;5045990;28;20244;-76
2022/07/30 07:28:30;;;;;;;7.13;3.03;;;17.60;99.90;;;;;;5047426;28;20041;-76
2022/07/30 07:30:55;;;;;;;5.13;2.40;;;17.60;99.90;;;;;;5050780;28;20390;-76
2022/07/30 07:33:21;;;;;;;4.75;2.75;;;17.70;99.90;;;;;;5047696;28;20469;-76
2022/07/30 07:35:47;;;;;;;5.38;2.67;;;17.70;99.90;;;;;;5032714;28;20048;-77
2022/07/30 07:38:12;;;;;;;6.40;3.10;;;17.80;99.90;;;;;;5048922;28;20037;-76
2022/07/30 07:40:38;;;;;;;5.05;2.55;;;17.90;99.90;;;;;;5046345;28;20513;-76
2022/07/30 07:43:04;;;;;;;4.70;2.45;;;18.00;99.90;;;;;;5045371;28;20041;-75
2022/07/30 07:45:30;;;;;;;6.07;3.30;;;18.00;99.90;;;;;;5046901;28;20124;-76
2022/07/30 07:47:55;;;;;;;5.75;2.90;;;18.10;99.90;;;;;;5046552;28;20128;-75
2022/07/30 07:50:21;;;;;;;5.20;3.00;;;18.10;99.90;;;;;;5046910;28;20064;-75
2022/07/30 07:52:47;;;;;;;8.25;3.70;;;18.10;99.90;;;;;;5032782;28;20052;-74
2022/07/30 07:55:13;;;;;;;10.30;3.30;;;18.20;99.90;;;;;;5022668;28;20069;-75
2022/07/30 07:57:40;;;;;;;6.18;3.20;;;18.20;99.90;;;;;;5035276;28;20045;-74
2022/07/30 08:00:08;;;;;;;4.80;2.92;;;18.20;99.90;;;;;;5040459;28;20045;-74
2022/07/30 08:02:34;;;;;;;4.50;2.92;;;18.30;99.90;;;;;;5041583;28;20517;-75
2022/07/30 08:05:00;;;;;;;5.70;3.22;;;18.40;99.90;;;;;;5040145;28;20044;-75
2022/07/30 08:07:26;;;;;;;4.97;3.10;;;18.40;99.90;;;;;;5034870;28;20319;-74
2022/07/30 08:09:51;;;;;;;6.13;3.15;;;18.40;99.90;;;;;;5038770;28;20037;-74
2022/07/30 08:12:17;;;;;;;5.55;2.88;;;18.40;99.90;;;;;;5038807;28;20406;-75
2022/07/30 08:14:42;;;;;;;4.68;2.78;;;18.50;99.90;;;;;;5039642;28;20044;-74
2022/07/30 08:17:08;;;;;;;6.10;3.05;;;18.60;99.90;;;;;;5041919;28;20045;-75
2022/07/30 08:19:34;;;;;;;8.43;3.20;;;18.60;99.90;;;;;;5040637;28;20036;-74
2022/07/30 08:21:59;;;;;;;4.00;2.53;;;18.50;99.90;;;;;;5041892;28;20041;-75
2022/07/30 08:24:25;;;;;;;5.80;3.05;;;18.50;99.90;;;;;;5038565;28;20056;-74
2022/07/30 08:26:51;;;;;;;7.07;3.38;;;18.50;99.90;;;;;;5024388;28;20104;-75
2022/07/30 08:29:17;;;;;;;4.63;2.40;;;18.60;99.90;;;;;;5022817;28;20109;-74
2022/07/30 08:31:42;;;;;;;5.00;2.60;;;18.80;99.90;;;;;;5038385;28;20542;-72
2022/07/30 08:34:08;;;;;;;4.32;2.28;;;18.90;99.90;;;;;;5035849;28;20063;-75
2022/07/30 08:36:34;;;;;;;4.07;2.60;;;19.00;99.90;;;;;;5042451;28;20421;-74
2022/07/30 08:38:59;;;;;;;6.97;2.72;;;19.10;99.90;;;;;;5040289;28;20044;-74
2022/07/30 08:41:26;;;;;;;6.18;2.40;;;19.10;99.90;;;;;;5040526;28;20114;-74
2022/07/30 08:43:53;;;;;;;4.13;2.50;;;19.20;99.90;;;;;;5039457;28;20102;-75
2022/07/30 08:46:23;;;;;;;4.50;2.45;;;19.30;99.90;;;;;;5037911;28;20028;-73
2022/07/30 08:48:51;;;;;;;3.30;2.05;;;19.40;99.90;;;;;;5040235;28;20453;-74
2022/07/30 08:51:18;;;;;;;3.03;1.92;;;19.50;99.90;;;;;;5038584;28;20039;-76
2022/07/30 08:53:44;;;;;;;3.33;2.00;;;19.50;99.90;;;;;;5039778;28;20040;-75
2022/07/30 08:56:11;;;;;;;5.93;1.88;;;19.50;99.90;;;;;;5023745;28;20028;-75
2022/07/30 08:58:36;;;;;;;4.68;2.10;;;19.60;99.90;;;;;;5041246;28;20055;-75
2022/07/30 09:01:04;;;;;;;2.45;1.73;;;19.70;99.90;;;;;;5037898;28;20037;-76
2022/07/30 09:03:30;;;;;;;5.00;1.77;;;19.70;99.90;;;;;;5038057;28;20064;-76
2022/07/30 09:05:56;;;;;;;2.15;1.30;;;19.70;99.90;;;;;;5040174;28;20048;-76
2022/07/30 09:08:21;;;;;;;3.22;1.75;;;19.70;99.90;;;;;;5039164;28;20083;-77
2022/07/30 09:10:47;;;;;;;3.65;1.73;;;19.80;99.90;;;;;;5038521;28;20676;-76
2022/07/30 09:13:26;;;;;;;2.70;1.15;;;19.70;99.90;;;;;;5040065;28;20525;-76
2022/07/30 09:15:52;;;;;;;4.88;1.77;;;19.80;99.90;;;;;;5034446;28;20044;-77
2022/07/30 09:18:35;;;;;;;2.30;1.42;;;19.80;99.90;;;;;;5038061;28;20623;-77
2022/07/30 09:21:17;;;;;;;6.57;1.85;;;19.80;99.90;;;;;;5040924;28;20041;-76
2022/07/30 09:24:04;;;;;;;2.60;1.55;;;19.80;99.90;;;;;;5036367;28;20087;-75
2022/07/30 09:26:33;;;;;;;2.88;1.58;;;19.80;99.90;;;;;;5021305;28;20040;-79
2022/07/30 09:29:17;;;;;;;2.63;1.83;;;19.80;99.90;;;;;;5038499;28;20395;-76
2022/07/30 09:31:56;;;;;;;2.47;1.40;;;19.80;99.90;;;;;;5038268;28;20036;-77
2022/07/30 09:34:35;;;;;;;2.67;1.50;;;19.90;99.90;;;;;;5027195;28;20766;-77
2022/07/30 09:37:03;;;;;;;4.55;2.17;;;19.90;99.90;;;;;;5040972;28;20040;-75
2022/07/30 09:39:34;;;;;;;2.05;1.33;;;20.00;99.90;;;;;;5036218;28;20090;-77
2022/07/30 09:42:02;;;;;;;2.30;1.45;;;20.00;99.90;;;;;;5039220;28;20036;-78
2022/07/30 09:44:29;;;;;;;1.92;1.20;;;20.10;99.90;;;;;;5019298;28;20494;-76
2022/07/30 09:46:57;;;;;;;3.03;1.65;;;20.20;99.90;;;;;;5052353;28;20037;-77
2022/07/30 09:49:25;;;;;;;3.72;1.70;;;20.20;99.90;;;;;;5037632;28;20235;-76
2022/07/30 09:51:52;;;;;;;3.35;1.38;;;20.20;99.90;;;;;;5039948;28;20036;-76
2022/07/30 09:54:18;;;;;;;3.40;1.17;;;20.20;99.90;;;;;;5034636;28;20048;-76
2022/07/30 09:56:46;;;;;;;2.30;1.08;;;20.20;99.90;;;;;;5030994;28;20223;-76
2022/07/30 09:59:29;;;;;;;4.40;1.23;;;20.10;99.90;;;;;;5020057;28;20044;-76
2022/07/30 10:01:56;;;;;;;3.42;1.42;;;20.20;99.90;;;;;;5025910;28;20089;-76
2022/07/30 10:04:30;;;;;;;2.33;1.40;;;20.20;99.90;;;;;;5037447;28;20037;-76
2022/07/30 10:06:56;;;;;;;3.10;1.55;;;20.30;99.90;;;;;;5037908;28;20032;-77
2022/07/30 10:09:30;;;;;;;1.90;1.33;;;20.20;99.90;;;;;;5035532;28;20052;-76
2022/07/30 10:11:58;;;;;;;2.95;1.52;;;20.30;99.90;;;;;;5034336;28;20486;-73
2022/07/30 10:14:27;;;;;;;1.90;1.20;;;20.30;99.90;;;;;;5036565;28;20080;-77
2022/07/30 10:16:53;;;;;;;2.22;1.00;;;20.40;99.90;;;;;;5036644;28;20075;-76
2022/07/30 10:19:19;;;;;;;3.67;1.27;;;20.50;99.90;;;;;;5039623;28;20401;-76
2022/07/30 10:21:45;;;;;;;1.58;0.90;;;20.60;99.90;;;;;;5025113;28;20127;-76
2022/07/30 10:24:12;;;;;;;3.72;1.55;;;20.50;99.90;;;;;;5044371;28;20064;-76
2022/07/30 10:26:38;;;;;;;1.10;0.80;;;20.50;99.90;;;;;;5042947;28;20068;-76
2022/07/30 10:29:04;;;;;;;4.78;1.27;;;20.50;99.90;;;;;;5044952;28;20072;-76
2022/07/30 10:31:29;;;;;;;3.08;1.30;;;20.50;99.90;;;;;;5044387;28;20357;-76
2022/07/30 10:33:56;;;;;;;2.10;1.15;;;20.50;99.80;;;;;;5044363;28;20033;-76
2022/07/30 10:36:24;;;;;;;2.72;1.00;;;20.50;99.60;;;;;;5044221;28;20048;-76
2022/07/30 10:38:50;;;;;;;1.52;1.10;;;20.60;99.40;;;;;;5044619;28;20103;-76
2022/07/30 10:41:45;;;;;;;2.53;1.00;;;20.60;99.40;;;;;;5044814;28;20517;-76
2022/07/30 10:44:20;;;;;;;2.25;1.17;;;20.80;99.60;;;;;;5042851;28;20489;-76
2022/07/30 10:46:53;;;;;;;1.90;1.30;;;20.90;98.90;;;;;;5044589;28;20179;-76
2022/07/30 10:49:19;;;;;;;3.78;1.33;;;21.00;98.80;;;;;;5045143;28;20515;-76
2022/07/30 10:51:50;;;;;;;2.42;1.33;;;21.00;98.70;;;;;;5044022;28;20163;-76
2022/07/30 10:54:40;;;;;;;1.45;0.85;;;21.00;98.40;;;;;;5044155;28;20040;-76
2022/07/30 10:57:08;;;;;;;2.47;0.98;;;20.90;98.00;;;;;;5043047;28;20045;-76
2022/07/30 10:59:54;;;;;;;1.80;1.02;;;20.80;98.90;;;;;;5045120;28;20041;-76
2022/07/30 11:02:21;;;;;;;2.55;0.90;;;20.90;98.20;;;;;;5042474;28;20045;-76
2022/07/30 11:04:46;;;;;;;2.28;1.23;;;21.10;98.50;;;;;;5042769;28;20517;-76
2022/07/30 11:07:22;;;;;;;2.58;1.10;;;21.10;98.30;;;;;;5043592;28;20029;-76
2022/07/30 11:10:00;;;;;;;3.67;1.10;;;21.20;98.10;;;;;;5034102;28;20559;-76
2022/07/30 11:12:54;;;;;;;1.75;1.27;;;21.40;98.40;;;;;;5042222;28;20509;-76
2022/07/30 11:15:21;;;;;;;2.47;1.25;;;21.60;95.00;;;;;;5041937;28;20498;-76
2022/07/30 11:18:05;;;;;;;1.73;1.10;;;21.60;97.10;;;;;;5042409;28;20432;-76
2022/07/30 11:20:32;;;;;;;1.52;0.98;;;21.60;95.70;;;;;;5043810;28;20041;-76
2022/07/30 11:23:32;;;;;;;2.60;1.27;;;21.40;97.10;;;;;;5042474;28;20501;-75
2022/07/30 11:25:57;;;;;;;4.85;1.13;;;21.40;97.10;;;;;;5023145;28;20458;-76
2022/07/30 11:28:35;;;;;;;1.77;1.00;;;21.40;97.40;;;;;;5043034;28;20096;-75
2022/07/30 11:31:01;;;;;;;1.73;1.00;;;21.50;96.20;;;;;;5027141;28;20056;-76
2022/07/30 11:33:26;;;;;;;2.97;1.20;;;21.50;96.90;;;;;;5044224;28;20040;-76
2022/07/30 11:36:10;;;;;;;2.03;1.20;;;21.60;96.50;;;;;;5044398;28;20439;-76
2022/07/30 11:38:57;;;;;;;1.60;0.90;;;21.40;95.60;;;;;;5039901;28;20490;-75
2022/07/30 11:41:23;;;;;;;1.30;0.90;;;21.30;96.00;;;;;;5048530;28;20440;-76
2022/07/30 11:44:28;;;;;;;2.10;1.10;;;21.50;96.60;;;;;;5047333;28;20448;-75
2022/07/30 11:46:54;;;;;;;1.75;0.95;;;21.50;95.40;;;;;;5045760;28;20041;-76
2022/07/30 11:49:20;;;;;;;1.45;0.95;;;21.60;96.00;;;;;;5047929;28;20033;-75
2022/07/30 11:51:48;;;;;;;2.45;1.20;;;21.60;95.80;;;;;;5048054;28;20044;-76
2022/07/30 11:54:14;;;;;;;1.60;0.90;;;21.60;95.60;;;;;;5058401;28;20518;-76
2022/07/30 11:56:50;;;;;;;2.00;1.00;;;21.60;95.40;;;;;;5030392;28;20037;-75
2022/07/30 11:59:16;;;;;;;2.50;1.15;;;21.60;94.40;;;;;;5046192;28;20072;-75
2022/07/30 12:01:42;;;;;;;3.08;1.00;;;21.60;95.10;;;;;;5047673;28;20129;-76
2022/07/30 12:04:08;;;;;;;1.70;1.13;;;21.60;95.20;;;;;;5046566;28;20045;-76
2022/07/30 12:06:43;;;;;;;1.25;0.75;;;21.60;95.20;;;;;;5047034;28;20045;-76
2022/07/30 12:09:09;;;;;;;1.38;0.80;;;21.60;94.70;;;;;;5046535;28;20032;-76
2022/07/30 12:11:36;;;;;;;3.40;1.08;;;21.70;95.00;;;;;;5047131;28;20033;-75
2022/07/30 12:14:02;;;;;;;1.92;0.98;;;21.80;94.70;;;;;;5047058;28;20037;-76
2022/07/30 12:16:29;;;;;;;1.50;1.02;;;21.90;94.40;;;;;;5047070;28;20560;-76
2022/07/30 12:19:01;;;;;;;1.48;0.80;;;22.00;94.30;;;;;;5047222;28;20078;-76
2022/07/30 12:21:26;;;;;;;1.92;1.00;;;22.10;94.00;;;;;;5047711;28;20041;-76
2022/07/30 12:23:58;;;;;;;1.85;0.90;;;22.20;93.90;;;;;;5046275;28;20095;-76
2022/07/30 12:26:28;;;;;;;3.67;0.90;;;22.30;93.30;;;;;;5045580;28;20053;-76
2022/07/30 12:28:55;;;;;;;2.78;0.75;;;22.30;93.10;;;;;;5029191;28;20167;-76
2022/07/30 12:31:22;;;;;;;1.67;0.88;;;22.40;93.20;;;;;;5046977;28;20040;-75
2022/07/30 12:33:48;;;;;;;4.43;1.00;;;22.40;93.10;;;;;;5045037;28;20036;-76
2022/07/30 12:36:28;;;;;;;1.27;0.73;;;22.30;93.20;;;;;;5048144;28;20040;-76
2022/07/30 12:38:55;;;;;;;1.65;1.10;;;22.30;92.80;;;;;;5045641;28;20052;-76
2022/07/30 12:41:21;;;;;;;6.20;1.00;;;22.40;93.10;;;;;;5046938;28;20167;-76
2022/07/30 12:43:52;;;;;;;1.10;0.60;;;22.30;92.90;;;;;;5046754;28;20037;-76
2022/07/30 12:46:28;;;;;;;2.90;0.90;;;22.30;92.60;;;;;;5043687;28;20041;-76
2022/07/30 12:49:04;;;;;;;3.08;1.08;;;22.20;92.50;;;;;;5044553;28;20612;-76
2022/07/30 12:51:33;;;;;;;1.40;0.82;;;22.30;90.50;;;;;;5043561;28;20044;-76
2022/07/30 12:54:00;;;;;;;0.90;0.50;;;22.20;91.50;;;;;;5044835;28;20103;-75
2022/07/30 12:56:29;;;;;;;1.48;0.80;;;22.30;91.80;;;;;;5046429;28;20467;-75
2022/07/30 12:58:57;;;;;;;2.15;0.90;;;22.30;91.70;;;;;;5045058;28;20033;-75